createdAt,value
2019-02-23T00:00:03.773Z,5.80
2019-02-23T00:02:45.789Z,5.70
2019-02-23T00:05:30.001Z,5.70
2019-02-23T00:08:12.529Z,5.70
2019-02-23T00:10:52.002Z,5.70
2019-02-23T00:13:30.170Z,5.60
2019-02-23T00:16:13.305Z,5.60
2019-02-23T00:21:50.676Z,5.50
2019-02-23T00:24:32.720Z,5.40
2019-02-23T00:27:10.647Z,5.40
2019-02-23T00:29:50.432Z,5.30
2019-02-23T00:32:32.104Z,5.30
2019-02-23T00:35:10.327Z,5.30
2019-02-23T00:37:49.708Z,5.20
2019-02-23T00:40:33.172Z,5.20
2019-02-23T00:43:12.856Z,5.10
2019-02-23T00:45:56.211Z,5.10
2019-02-23T00:48:36.563Z,5.10
2019-02-23T00:51:20.986Z,5.10
2019-02-23T00:54:06.223Z,5.20
2019-02-23T00:56:48.615Z,5.20
2019-02-23T00:59:33.144Z,5.20
2019-02-23T01:02:13.493Z,5.20
2019-02-23T01:04:50.337Z,5.20
2019-02-23T01:07:36.819Z,5.30
2019-02-23T01:10:15.502Z,5.30
2019-02-23T01:13:00.220Z,5.30
2019-02-23T01:15:41.553Z,5.30
2019-02-23T01:18:26.422Z,5.30
2019-02-23T01:21:05.769Z,5.30
2019-02-23T01:23:47.441Z,5.40
2019-02-23T01:26:31.526Z,5.40
2019-02-23T01:29:09.724Z,5.40
2019-02-23T01:31:55.626Z,5.40
2019-02-23T01:34:34.848Z,5.40
2019-02-23T01:37:18.105Z,5.40
2019-02-23T01:40:00.697Z,5.40
2019-02-23T01:42:41.040Z,5.40
2019-02-23T01:45:22.284Z,5.40
2019-02-23T01:48:07.206Z,5.40
2019-02-23T01:50:51.004Z,5.40
2019-02-23T01:53:34.833Z,5.40
2019-02-23T01:56:22.134Z,5.50
2019-02-23T02:01:44.445Z,5.50
2019-02-23T02:04:24.437Z,5.50
2019-02-23T02:07:08.208Z,5.50
2019-02-23T02:09:48.507Z,5.50
2019-02-23T02:12:28.856Z,5.50
2019-02-23T02:15:06.341Z,5.40
2019-02-23T02:17:41.819Z,5.40
2019-02-23T02:20:23.482Z,5.40
2019-02-23T02:23:02.330Z,5.40
2019-02-23T02:25:45.774Z,5.40
2019-02-23T02:28:33.530Z,5.40
2019-02-23T02:31:11.618Z,5.40
2019-02-23T02:34:20.616Z,5.40
2019-02-23T02:37:02.321Z,5.30
2019-02-23T02:39:41.949Z,5.30
2019-02-23T02:42:25.017Z,5.30
2019-02-23T02:45:04.651Z,5.30
2019-02-23T02:47:48.451Z,5.20
2019-02-23T02:50:33.624Z,5.20
2019-02-23T02:53:16.753Z,5.20
2019-02-23T02:55:57.026Z,5.10
2019-02-23T02:58:38.838Z,5.00
2019-02-23T03:01:21.780Z,5.00
2019-02-23T03:03:59.752Z,4.90
2019-02-23T03:06:43.774Z,4.90
2019-02-23T03:09:23.458Z,4.90
2019-02-23T03:12:05.160Z,4.90
2019-02-23T03:14:44.676Z,4.90
2019-02-23T03:17:29.234Z,4.90
2019-02-23T03:20:10.884Z,4.90
2019-02-23T03:22:51.977Z,4.80
2019-02-23T03:25:32.264Z,4.80
2019-02-23T03:28:13.443Z,4.80
2019-02-23T03:30:54.972Z,4.80
2019-02-23T03:33:33.178Z,4.70
2019-02-23T03:36:15.566Z,4.70
2019-02-23T03:39:02.136Z,4.60
2019-02-23T03:41:41.359Z,4.60
2019-02-23T03:44:28.395Z,4.60
2019-02-23T03:47:08.671Z,4.60
2019-02-23T03:49:50.372Z,4.60
2019-02-23T03:52:29.973Z,4.60
2019-02-23T03:55:19.251Z,4.60
2019-02-23T03:58:01.074Z,4.60
2019-02-23T04:00:42.074Z,4.70
2019-02-23T04:03:22.375Z,4.70
2019-02-23T04:06:05.478Z,4.60
2019-02-23T04:08:45.777Z,4.60
2019-02-23T04:11:37.231Z,4.50
2019-02-23T04:14:15.448Z,4.50
2019-02-23T04:16:59.692Z,4.40
2019-02-23T04:19:35.355Z,4.40
2019-02-23T04:22:15.654Z,4.30
2019-02-23T04:24:53.158Z,4.20
2019-02-23T04:27:40.457Z,4.20
2019-02-23T04:30:23.805Z,4.10
2019-02-23T04:33:03.857Z,4.00
2019-02-23T04:35:46.404Z,4.00
2019-02-23T04:38:28.293Z,3.90
2019-02-23T04:41:07.562Z,3.90
2019-02-23T04:43:49.289Z,3.80
2019-02-23T04:46:29.589Z,3.80
2019-02-23T04:49:09.891Z,3.80
2019-02-23T04:51:52.298Z,3.80
2019-02-23T04:54:37.465Z,3.70
2019-02-23T04:57:15.696Z,3.70
2019-02-23T04:59:58.795Z,3.70
2019-02-23T05:02:36.339Z,3.60
2019-02-23T05:05:15.869Z,3.50
2019-02-23T05:08:01.363Z,3.50
2019-02-23T05:10:43.498Z,3.50
2019-02-23T05:13:24.574Z,3.50
2019-02-23T05:16:08.974Z,3.50
2019-02-23T05:18:47.875Z,3.40
2019-02-23T05:21:32.375Z,3.40
2019-02-23T05:24:13.402Z,3.40
2019-02-23T05:26:56.475Z,3.40
2019-02-23T05:29:35.084Z,3.40
2019-02-23T05:32:15.584Z,3.30
2019-02-23T05:34:55.226Z,3.30
2019-02-23T05:37:32.779Z,3.30
2019-02-23T05:40:13.855Z,3.20
2019-02-23T05:43:00.941Z,3.20
2019-02-23T05:45:39.318Z,3.20
2019-02-23T05:48:25.183Z,3.10
2019-02-23T05:51:04.084Z,3.10
2019-02-23T05:53:45.084Z,3.00
2019-02-23T05:56:30.314Z,3.00
2019-02-23T05:59:08.535Z,3.00
2019-02-23T06:01:50.220Z,3.00
2019-02-23T06:04:35.416Z,2.90
2019-02-23T06:07:19.216Z,2.90
2019-02-23T06:10:02.657Z,2.90
2019-02-23T06:12:40.982Z,2.80
2019-02-23T06:15:19.388Z,2.80
2019-02-23T06:18:02.520Z,2.80
2019-02-23T06:20:45.707Z,2.80
2019-02-23T06:23:23.791Z,2.70
2019-02-23T06:26:10.291Z,2.70
2019-02-23T06:28:48.616Z,2.70
2019-02-23T06:31:33.516Z,2.70
2019-02-23T06:34:16.515Z,2.70
2019-02-23T06:36:54.428Z,2.60
2019-02-23T06:39:36.099Z,2.50
2019-02-23T06:42:21.575Z,2.50
2019-02-23T06:45:05.147Z,2.60
2019-02-23T06:47:43.304Z,2.60
2019-02-23T06:50:26.435Z,2.60
2019-02-23T06:53:07.475Z,2.60
2019-02-23T06:58:37.106Z,2.60
2019-02-23T07:01:19.534Z,2.60
2019-02-23T07:04:06.104Z,2.70
2019-02-23T07:06:47.815Z,2.70
2019-02-23T07:09:31.637Z,2.70
2019-02-23T07:12:11.910Z,2.80
2019-02-23T07:14:52.488Z,2.80
2019-02-23T07:17:37.013Z,2.90
2019-02-23T07:20:21.213Z,2.90
2019-02-23T07:23:12.010Z,3.00
2019-02-23T07:25:55.816Z,3.10
2019-02-23T07:28:41.712Z,3.10
2019-02-23T07:31:23.836Z,3.10
2019-02-23T07:34:09.004Z,3.30
2019-02-23T07:36:47.951Z,3.30
2019-02-23T07:39:30.619Z,3.40
2019-02-23T07:42:19.349Z,3.50
2019-02-23T07:44:55.351Z,3.60
2019-02-23T07:47:35.022Z,3.60
2019-02-23T07:50:22.327Z,3.70
2019-02-23T07:53:03.209Z,3.70
2019-02-23T07:55:43.652Z,3.80
2019-02-23T07:58:30.953Z,3.90
2019-02-23T08:01:12.654Z,4.00
2019-02-23T08:03:54.324Z,4.20
2019-02-23T08:06:35.106Z,4.20
2019-02-23T08:09:17.301Z,4.20
2019-02-23T08:11:53.696Z,4.20
2019-02-23T08:14:34.830Z,4.10
2019-02-23T08:17:17.513Z,4.10
2019-02-23T08:20:01.033Z,4.20
2019-02-23T08:22:50.758Z,4.40
2019-02-23T08:25:36.331Z,4.50
2019-02-23T08:28:16.663Z,4.70
2019-02-23T08:30:53.935Z,4.80
2019-02-23T08:33:37.041Z,4.90
2019-02-23T08:36:17.572Z,5.00
2019-02-23T08:39:02.040Z,5.10
2019-02-23T08:41:50.088Z,5.10
2019-02-23T08:44:33.168Z,5.20
2019-02-23T08:47:14.144Z,5.20
2019-02-23T08:49:52.332Z,5.30
2019-02-23T08:52:34.041Z,5.40
2019-02-23T08:55:17.147Z,5.50
2019-02-23T08:58:03.773Z,5.70
2019-02-23T09:00:41.291Z,5.90
2019-02-23T09:03:29.649Z,6.00
2019-02-23T09:06:14.449Z,6.00
2019-02-23T09:08:56.811Z,6.00
2019-02-23T09:11:37.596Z,6.00
2019-02-23T09:14:15.662Z,6.00
2019-02-23T09:16:55.679Z,6.00
2019-02-23T09:19:34.269Z,6.20
2019-02-23T09:22:16.267Z,6.30
2019-02-23T09:25:04.984Z,6.20
2019-02-23T09:27:41.087Z,6.20
2019-02-23T09:30:22.013Z,6.40
2019-02-23T09:33:02.360Z,6.60
2019-02-23T09:35:46.858Z,6.60
2019-02-23T09:38:28.560Z,6.70
2019-02-23T09:41:08.469Z,7.00
2019-02-23T09:43:51.962Z,7.30
2019-02-23T09:46:39.290Z,7.30
2019-02-23T09:49:18.164Z,7.10
2019-02-23T09:52:00.565Z,7.40
2019-02-23T09:54:42.993Z,7.50
2019-02-23T09:57:27.125Z,7.50
2019-02-23T10:00:05.410Z,7.60
2019-02-23T10:02:50.196Z,7.40
2019-02-23T10:05:38.735Z,7.50
2019-02-23T10:08:20.567Z,7.60
2019-02-23T10:10:59.501Z,7.70
2019-02-23T10:13:41.173Z,7.50
2019-02-23T10:16:21.534Z,7.60
2019-02-23T10:19:03.185Z,7.70
2019-02-23T10:21:45.604Z,7.80
2019-02-23T10:24:24.749Z,7.70
2019-02-23T10:27:04.058Z,8.00
2019-02-23T10:29:46.508Z,8.30
2019-02-23T10:32:30.280Z,8.50
2019-02-23T10:35:13.796Z,8.70
2019-02-23T10:37:56.058Z,8.90
2019-02-23T10:40:41.453Z,9.10
2019-02-23T10:43:22.715Z,9.30
2019-02-23T10:46:05.083Z,9.50
2019-02-23T10:48:48.920Z,9.30
2019-02-23T10:51:32.684Z,9.00
2019-02-23T10:54:12.772Z,9.10
2019-02-23T10:56:58.151Z,9.30
2019-02-23T10:59:41.990Z,9.50
2019-02-23T11:02:25.836Z,9.80
2019-02-23T11:05:06.887Z,9.90
2019-02-23T11:07:50.590Z,10.10
2019-02-23T11:10:32.227Z,10.40
2019-02-23T11:13:16.796Z,10.50
2019-02-23T11:15:59.224Z,10.60
2019-02-23T11:18:37.398Z,10.80
2019-02-23T11:21:19.295Z,10.90
2019-02-23T11:24:00.128Z,11.00
2019-02-23T11:26:41.103Z,11.10
2019-02-23T11:29:23.161Z,11.20
2019-02-23T11:32:01.004Z,11.50
2019-02-23T11:34:42.732Z,11.50
2019-02-23T11:37:25.106Z,11.50
2019-02-23T11:42:51.101Z,11.80
2019-02-23T11:45:31.043Z,12.10
2019-02-23T11:50:58.155Z,12.70
2019-02-23T11:53:40.912Z,12.90
2019-02-23T11:56:23.459Z,12.70
2019-02-23T11:59:10.615Z,12.80
2019-02-23T12:01:48.116Z,12.60
2019-02-23T12:04:28.993Z,12.60
2019-02-23T12:07:10.816Z,13.00
2019-02-23T12:09:54.732Z,13.20
2019-02-23T12:12:38.065Z,13.10
2019-02-23T12:15:20.847Z,13.00
2019-02-23T12:18:02.572Z,13.20
2019-02-23T12:20:39.348Z,13.20
2019-02-23T12:23:21.750Z,13.50
2019-02-23T12:26:07.649Z,13.70
2019-02-23T12:28:49.019Z,13.80
2019-02-23T12:31:28.223Z,13.90
2019-02-23T12:34:09.254Z,13.80
2019-02-23T12:36:57.465Z,13.20
2019-02-23T12:39:34.140Z,13.10
2019-02-23T12:42:15.101Z,13.30
2019-02-23T12:44:56.755Z,13.00
2019-02-23T12:47:34.956Z,12.80
2019-02-23T12:50:16.094Z,12.50
2019-02-23T12:52:56.760Z,12.60
2019-02-23T12:55:34.449Z,12.80
2019-02-23T12:58:18.277Z,12.90
2019-02-23T13:00:59.878Z,12.90
2019-02-23T13:03:46.614Z,12.50
2019-02-23T13:06:30.995Z,12.40
2019-02-23T13:09:22.537Z,12.50
2019-02-23T13:12:19.710Z,12.60
2019-02-23T13:15:11.869Z,12.50
2019-02-23T13:18:08.239Z,12.80
2019-02-23T13:21:16.276Z,12.90
2019-02-23T13:23:55.564Z,12.70
2019-02-23T13:27:04.946Z,12.80
2019-02-23T13:30:03.676Z,12.80
2019-02-23T13:33:01.472Z,12.90
2019-02-23T13:36:01.233Z,12.60
2019-02-23T13:42:11.650Z,12.40
2019-02-23T13:45:12.639Z,12.40
2019-02-23T13:48:21.259Z,12.40
2019-02-23T13:51:21.254Z,12.30
2019-02-23T13:54:13.664Z,12.40
2019-02-23T13:57:02.731Z,12.10
2019-02-23T13:59:57.783Z,12.00
2019-02-23T14:03:05.384Z,11.70
2019-02-23T14:05:56.186Z,11.70
2019-02-23T14:09:03.599Z,11.80
2019-02-23T14:12:09.956Z,11.90
2019-02-23T14:14:55.156Z,12.00
2019-02-23T14:17:57.149Z,12.00
2019-02-23T14:20:54.153Z,12.00
2019-02-23T14:24:01.809Z,11.80
2019-02-23T14:26:59.666Z,11.80
2019-02-23T14:29:58.765Z,11.90
2019-02-23T14:33:11.950Z,12.10
2019-02-23T14:36:04.965Z,12.30
2019-02-23T14:39:18.465Z,12.30
2019-02-23T14:42:15.299Z,12.10
2019-02-23T14:45:13.768Z,12.00
2019-02-23T14:48:15.073Z,11.50
2019-02-23T14:51:02.374Z,11.30
2019-02-23T14:54:00.219Z,11.10
2019-02-23T14:56:46.165Z,10.90
2019-02-23T14:59:47.386Z,10.80
2019-02-23T15:02:47.076Z,10.80
2019-02-23T15:06:02.610Z,10.80
2019-02-23T15:08:45.660Z,10.70
2019-02-23T15:11:44.878Z,10.70
2019-02-23T15:15:00.352Z,10.60
2019-02-23T15:17:45.388Z,10.70
2019-02-23T15:20:45.284Z,10.60
2019-02-23T15:23:33.572Z,10.50
2019-02-23T15:26:24.102Z,10.40
2019-02-23T15:29:31.379Z,10.40
2019-02-23T15:32:30.187Z,10.30
2019-02-23T15:35:15.417Z,10.20
2019-02-23T15:38:00.618Z,10.10
2019-02-23T15:40:50.731Z,10.20
2019-02-23T15:43:29.637Z,10.30
2019-02-23T15:46:09.516Z,10.20
2019-02-23T15:49:25.252Z,10.10
2019-02-23T15:51:59.253Z,9.80
2019-02-23T15:54:38.124Z,9.80
2019-02-23T15:57:24.025Z,9.70
2019-02-23T16:00:03.988Z,9.70
2019-02-23T16:02:45.328Z,9.60
2019-02-23T16:05:23.545Z,9.60
2019-02-23T16:08:05.229Z,9.50
2019-02-23T16:10:45.953Z,9.50
2019-02-23T16:13:25.114Z,9.40
2019-02-23T16:16:05.404Z,9.40
2019-02-23T16:18:51.239Z,9.30
2019-02-23T16:21:33.032Z,9.10
2019-02-23T16:24:14.779Z,9.00
2019-02-23T16:26:56.478Z,8.70
2019-02-23T16:29:39.510Z,8.60
2019-02-23T16:32:22.637Z,8.50
2019-02-23T16:35:02.912Z,8.50
2019-02-23T16:37:40.455Z,8.30
2019-02-23T16:40:22.119Z,8.20
2019-02-23T16:42:59.279Z,8.10
2019-02-23T16:45:45.786Z,8.10
2019-02-23T16:48:32.749Z,8.00
2019-02-23T16:51:14.543Z,7.90
2019-02-23T16:53:53.821Z,7.80
2019-02-23T16:56:32.644Z,7.70
2019-02-23T16:59:11.918Z,7.70
2019-02-23T17:01:58.392Z,7.60
2019-02-23T17:04:37.112Z,7.60
2019-02-23T17:07:17.019Z,7.50
2019-02-23T17:10:03.658Z,7.40
2019-02-23T17:12:48.184Z,7.30
2019-02-23T17:15:27.723Z,7.20
2019-02-23T17:18:09.452Z,7.20
2019-02-23T17:20:53.927Z,7.10
2019-02-23T17:23:29.327Z,7.00
2019-02-23T17:26:13.155Z,7.00
2019-02-23T17:28:56.548Z,7.00
2019-02-23T17:31:34.460Z,6.90
2019-02-23T17:34:17.283Z,6.90
2019-02-23T17:36:59.927Z,6.90
2019-02-23T17:39:43.761Z,6.90
2019-02-23T17:42:28.114Z,6.80
2019-02-23T17:45:04.435Z,6.70
2019-02-23T17:47:52.362Z,6.70
2019-02-23T17:50:32.665Z,6.70
2019-02-23T17:53:16.437Z,6.60
2019-02-23T17:55:58.864Z,6.50
2019-02-23T17:58:40.010Z,6.40
2019-02-23T18:01:22.639Z,6.40
2019-02-23T18:04:01.836Z,6.30
2019-02-23T18:06:43.570Z,6.30
2019-02-23T18:09:21.745Z,6.30
2019-02-23T18:12:02.917Z,6.20
2019-02-23T18:14:41.006Z,6.20
2019-02-23T18:17:24.744Z,6.20
2019-02-23T18:20:10.718Z,6.10
2019-02-23T18:22:53.176Z,6.00
2019-02-23T18:25:31.275Z,5.90
2019-02-23T18:28:18.520Z,5.90
2019-02-23T18:30:58.849Z,5.80
2019-02-23T18:33:36.403Z,5.80
2019-02-23T18:36:18.078Z,5.80
2019-02-23T18:38:56.252Z,5.60
2019-02-23T18:41:43.582Z,5.50
2019-02-23T18:44:29.906Z,5.50
2019-02-23T18:47:12.554Z,5.40
2019-02-23T18:49:57.082Z,5.40
2019-02-23T18:52:36.683Z,5.40
2019-02-23T18:55:16.284Z,5.50
2019-02-23T18:57:57.957Z,5.40
2019-02-23T19:00:41.735Z,5.30
2019-02-23T19:03:22.755Z,5.20
2019-02-23T19:06:10.088Z,5.10
2019-02-23T19:08:51.377Z,5.10
2019-02-23T19:11:36.291Z,5.10
2019-02-23T19:14:17.291Z,5.00
2019-02-23T19:17:08.477Z,5.00
2019-02-23T19:19:48.366Z,4.90
2019-02-23T19:22:25.193Z,4.90
2019-02-23T19:25:08.967Z,4.90
2019-02-23T19:27:49.517Z,4.90
2019-02-23T19:30:30.969Z,4.80
2019-02-23T19:33:09.197Z,4.80
2019-02-23T19:35:53.342Z,4.80
2019-02-23T19:38:36.099Z,4.80
2019-02-23T19:41:16.760Z,4.80
2019-02-23T19:43:54.951Z,4.70
2019-02-23T19:46:42.574Z,4.70
2019-02-23T19:49:19.507Z,4.70
2019-02-23T19:51:59.796Z,4.80
2019-02-23T19:54:45.122Z,4.80
2019-02-23T19:57:25.520Z,4.80
2019-02-23T20:00:11.777Z,4.80
2019-02-23T20:02:52.779Z,4.80
2019-02-23T20:05:30.307Z,4.80
2019-02-23T20:08:10.608Z,4.80
2019-02-23T20:10:51.528Z,4.80
2019-02-23T20:13:30.557Z,4.80
2019-02-23T20:16:11.190Z,4.80
2019-02-23T20:18:51.016Z,4.80
2019-02-23T20:21:34.186Z,4.80
2019-02-23T20:24:13.968Z,4.70
2019-02-23T20:26:56.883Z,4.70
2019-02-23T20:29:37.188Z,4.70
2019-02-23T20:32:16.816Z,4.70
2019-02-23T20:34:52.602Z,4.60
2019-02-23T20:37:35.321Z,4.80
2019-02-23T20:40:15.587Z,4.80
2019-02-23T20:43:00.119Z,4.80
2019-02-23T20:45:43.926Z,4.80
2019-02-23T20:48:27.982Z,4.70
2019-02-23T20:51:09.808Z,4.70
2019-02-23T20:53:49.521Z,4.70
2019-02-23T20:56:31.424Z,4.80
2019-02-23T20:59:13.097Z,4.90
2019-02-23T21:01:53.673Z,4.80
2019-02-23T21:04:35.099Z,4.80
2019-02-23T21:07:13.328Z,4.70
2019-02-23T21:09:54.776Z,4.70
2019-02-23T21:12:35.585Z,4.60
2019-02-23T21:15:13.244Z,4.60
2019-02-23T21:17:53.848Z,4.60
2019-02-23T21:20:35.507Z,4.70
2019-02-23T21:23:17.902Z,4.70
2019-02-23T21:26:00.008Z,4.70
2019-02-23T21:28:41.307Z,4.60
2019-02-23T21:31:23.008Z,4.60
2019-02-23T21:34:02.636Z,4.60
2019-02-23T21:36:39.437Z,4.70
2019-02-23T21:39:19.235Z,4.60
2019-02-23T21:42:04.681Z,4.60
2019-02-23T21:44:50.147Z,4.50
2019-02-23T21:47:28.313Z,4.50
2019-02-23T21:50:09.342Z,4.80
2019-02-23T21:52:48.963Z,5.30
2019-02-23T21:55:29.949Z,5.50
2019-02-23T21:58:10.815Z,5.60
2019-02-23T22:00:49.909Z,5.70
2019-02-23T22:03:30.853Z,5.70
2019-02-23T22:06:14.843Z,5.70
2019-02-23T22:08:51.447Z,5.40
2019-02-23T22:11:35.228Z,5.10
2019-02-23T22:14:18.320Z,5.00
2019-02-23T22:16:57.295Z,4.80
2019-02-23T22:19:45.259Z,4.80
2019-02-23T22:22:24.850Z,4.60
2019-02-23T22:25:07.221Z,4.50
2019-02-23T22:27:49.650Z,4.50
2019-02-23T22:30:31.356Z,4.50
2019-02-23T22:33:10.252Z,4.40
2019-02-23T22:35:54.054Z,4.30
2019-02-23T22:38:34.326Z,4.30
2019-02-23T22:41:21.544Z,4.30
2019-02-23T22:44:04.812Z,4.20
2019-02-23T22:46:44.330Z,4.10
2019-02-23T22:49:32.356Z,4.10
2019-02-23T22:52:13.296Z,4.10
2019-02-23T22:55:00.377Z,4.00
2019-02-23T22:57:40.541Z,4.00
2019-02-23T23:00:21.234Z,4.00
2019-02-23T23:02:59.433Z,3.90
2019-02-23T23:05:40.479Z,3.90
2019-02-23T23:08:21.432Z,3.80
2019-02-23T23:10:57.563Z,3.90
2019-02-23T23:13:38.564Z,3.80
2019-02-23T23:16:24.464Z,3.80
2019-02-23T23:19:01.265Z,3.80
2019-02-23T23:21:45.767Z,3.80
2019-02-23T23:24:24.668Z,3.80
2019-02-23T23:27:11.954Z,3.80
2019-02-23T23:29:55.041Z,3.80
2019-02-23T23:32:36.770Z,3.80
2019-02-23T23:35:17.073Z,3.80
2019-02-23T23:38:01.541Z,3.80
2019-02-23T23:40:41.872Z,3.80
2019-02-23T23:43:20.073Z,3.80
2019-02-23T23:45:59.674Z,3.80
2019-02-23T23:48:38.579Z,3.70
2019-02-23T23:51:21.648Z,3.80
2019-02-23T23:53:59.178Z,3.70
2019-02-23T23:56:39.477Z,3.60
2019-02-23T23:59:21.179Z,3.60
